Hauptseite
METAR-TAF:

METAR-TAF

Flughäfen :

Karachi/Jinnah International Airport

Karatschi, Pakistan

Breite: 24-54N, Länge: 067-08E, Höhe: 21 m

Beobachtung

Neuester Wetterbericht von vor 26 Minuten, um 09:55 UTC
Wind 10 kt aus Nordost
Temperatur 25°C
Luftfeuchtigkeit 39%
Luftdruck 1016 hPa
Sichtweite: 4000 m
trockener Dunst

METAR: OPKC 120955Z 04010KT 4000 HZ NSC 25/10 Q1016 NOSIG

Zeit: 15:21 (10:21 UTC)

Prognose

Neuester Wetterbericht von vor 3 Stunden und 51 Minuten, um 06:30 UTC
Gültige Prognose vom 12 um 09 UTC bis 12 um 18 UTC
Wind 10 kt aus Nordost
Sichtweite: 5000 m
Rauch

TAF: OPKC 120630Z 1209/1218 05010KT 5000 FU NSC

Wetterbeobachtungen und Prognosen von mehr als 4000 Flughäfen (METAR und TAF Bericht).

Die verfügbaren Stationen werden durch gelbe und rote Markierungen auf der Karte dargestellt.

Führen Sie die Maus auf sie, um den Namen der Station zu sehen.

Darauf klicken, um die Beobachtung von Wetterbeobachtungen und Prognosen zu sehen.

Um die Karte zu ändern : klicken Sie auf den grünen Tasten mit einem schwarzen Kreuz Zum Vergrößern, auf den grünen Button mit einem Gedankenstrich zu verkleinern, oder auf die grünen Pfeile für benachbarte Karten.


METAR-TAF: